createdAt,value
2018-04-16T00:00:51.266Z,19.40
2018-04-16T00:03:57.083Z,18.17
2018-04-16T00:07:02.053Z,19.30
2018-04-16T00:10:07.931Z,18.20
2018-04-16T00:13:14.063Z,18.03
2018-04-16T00:16:19.717Z,18.47
2018-04-16T00:19:24.692Z,17.47
2018-04-16T00:22:31.774Z,19.10
2018-04-16T00:25:38.384Z,17.37
2018-04-16T00:28:43.985Z,17.53
2018-04-16T00:31:54.602Z,18.17
2018-04-16T00:35:06.142Z,17.33
2018-04-16T00:38:17.409Z,18.80
2018-04-16T00:41:28.549Z,18.50
2018-04-16T00:44:39.478Z,18.87
2018-04-16T00:47:50.576Z,16.37
2018-04-16T00:51:01.200Z,19.00
2018-04-16T00:54:23.588Z,17.87
2018-04-16T00:57:35.085Z,18.07
2018-04-16T01:00:45.727Z,17.20
2018-04-16T01:03:56.781Z,18.30
2018-04-16T01:07:08.114Z,17.07
2018-04-16T01:13:57.641Z,18.90
2018-04-16T01:17:07.881Z,18.10
2018-04-16T01:20:19.205Z,19.03
2018-04-16T01:23:30.193Z,18.43
2018-04-16T01:26:41.077Z,20.40
2018-04-16T01:29:51.969Z,21.50
2018-04-16T01:33:02.965Z,21.93
2018-04-16T01:36:14.010Z,21.97
2018-04-16T01:39:24.894Z,21.07
2018-04-16T01:46:13.097Z,20.80
2018-04-16T01:49:23.761Z,20.17
2018-04-16T01:52:34.833Z,21.30
2018-04-16T01:55:46.053Z,21.60
2018-04-16T01:58:56.651Z,21.43
2018-04-16T02:02:07.869Z,20.87
2018-04-16T02:05:19.369Z,21.23
2018-04-16T02:08:30.040Z,22.33
2018-04-16T02:11:41.053Z,22.33
2018-04-16T02:14:51.688Z,20.87
2018-04-16T02:18:02.596Z,21.50
2018-04-16T02:21:13.893Z,20.80
2018-04-16T02:28:05.192Z,20.13
2018-04-16T02:31:15.774Z,19.90
2018-04-16T02:34:27.158Z,21.00
2018-04-16T02:37:38.190Z,20.70
2018-04-16T02:40:49.603Z,20.03
2018-04-16T02:44:00.583Z,20.47
2018-04-16T02:47:11.276Z,20.47
2018-04-16T02:50:22.582Z,18.57
2018-04-16T02:53:33.329Z,20.70
2018-04-16T02:56:44.919Z,21.53
2018-04-16T02:59:55.498Z,21.07
2018-04-16T03:03:06.689Z,21.57
2018-04-16T03:06:17.821Z,20.37
2018-04-16T03:09:29.277Z,20.03
2018-04-16T03:12:39.871Z,19.90
2018-04-16T03:15:50.097Z,20.60
2018-04-16T03:19:00.736Z,21.00
2018-04-16T03:22:11.925Z,21.00
2018-04-16T03:25:23.140Z,20.67
2018-04-16T03:28:33.767Z,21.47
2018-04-16T03:31:45.378Z,20.10
2018-04-16T03:34:56.559Z,19.17
2018-04-16T03:38:07.597Z,20.53
2018-04-16T03:41:18.572Z,18.23
2018-04-16T03:44:29.037Z,20.03
2018-04-16T03:47:40.462Z,20.47
2018-04-16T03:50:51.488Z,18.80
2018-04-16T03:53:57.089Z,20.30
2018-04-16T03:57:02.311Z,21.93
2018-04-16T04:00:08.464Z,21.47
2018-04-16T04:03:14.524Z,21.70
2018-04-16T04:06:20.573Z,20.37
2018-04-16T04:09:26.405Z,20.60
2018-04-16T04:12:32.154Z,21.00
2018-04-16T04:15:38.184Z,20.70
2018-04-16T04:18:44.041Z,20.77
2018-04-16T04:21:50.073Z,20.80
2018-04-16T04:25:07.137Z,20.17
2018-04-16T04:28:24.060Z,19.30
2018-04-16T04:31:29.895Z,20.83
2018-04-16T04:34:35.899Z,20.37
2018-04-16T04:37:42.032Z,18.50
2018-04-16T04:40:48.159Z,18.93
2018-04-16T04:43:53.385Z,20.13
2018-04-16T04:46:59.447Z,20.03
2018-04-16T04:50:05.572Z,23.90
2018-04-16T04:53:11.494Z,19.67
2018-04-16T04:56:17.657Z,21.10
2018-04-16T04:59:23.788Z,20.20
2018-04-16T05:02:29.425Z,20.40
2018-04-16T05:05:35.268Z,20.80
2018-04-16T05:08:40.485Z,20.33
2018-04-16T05:11:45.725Z,21.23
2018-04-16T05:14:50.670Z,20.60
2018-04-16T05:17:56.089Z,20.70
2018-04-16T05:21:02.249Z,20.43
2018-04-16T05:24:08.166Z,22.70
2018-04-16T05:27:14.213Z,21.03
2018-04-16T05:30:19.918Z,21.73
2018-04-16T05:33:25.097Z,21.87
2018-04-16T05:36:30.125Z,21.03
2018-04-16T05:39:35.331Z,22.80
2018-04-16T05:42:41.696Z,21.03
2018-04-16T05:45:47.836Z,21.50
2018-04-16T05:48:53.774Z,21.83
2018-04-16T05:51:59.621Z,20.47
2018-04-16T05:55:05.760Z,21.03
2018-04-16T05:58:11.478Z,22.50
2018-04-16T06:01:16.673Z,21.40
2018-04-16T06:04:21.881Z,21.13
2018-04-16T06:07:27.098Z,20.03
2018-04-16T06:10:32.935Z,23.00
2018-04-16T06:13:38.546Z,23.70
2018-04-16T06:16:43.683Z,23.10
2018-04-16T06:19:48.652Z,22.00
2018-04-16T06:22:53.901Z,24.40
2018-04-16T06:25:58.877Z,21.20
2018-04-16T06:29:04.105Z,23.60
2018-04-16T06:32:09.321Z,24.07
2018-04-16T06:35:15.193Z,23.13
2018-04-16T06:38:21.325Z,25.30
2018-04-16T06:41:27.461Z,23.73
2018-04-16T06:44:33.510Z,25.63
2018-04-16T06:47:38.729Z,26.27
2018-04-16T06:50:43.940Z,23.67
2018-04-16T06:53:49.162Z,24.60
2018-04-16T06:56:54.361Z,25.93
2018-04-16T07:00:00.525Z,24.33
2018-04-16T07:03:06.569Z,23.27
2018-04-16T07:06:12.403Z,25.97
2018-04-16T07:09:17.622Z,24.00
2018-04-16T07:12:23.845Z,26.10
2018-04-16T07:15:29.876Z,26.33
2018-04-16T07:18:35.502Z,24.67
2018-04-16T07:21:41.412Z,25.67
2018-04-16T07:24:46.621Z,24.63
2018-04-16T07:27:52.753Z,25.17
2018-04-16T07:30:58.590Z,26.03
2018-04-16T07:34:04.437Z,25.37
2018-04-16T07:37:10.061Z,25.00
2018-04-16T07:40:15.054Z,26.30
2018-04-16T07:43:20.686Z,23.97
2018-04-16T07:46:26.509Z,24.73
2018-04-16T07:49:31.731Z,24.23
2018-04-16T07:52:36.975Z,24.20
2018-04-16T07:55:42.224Z,25.70
2018-04-16T07:58:47.433Z,23.87
2018-04-16T08:01:53.369Z,25.87
2018-04-16T08:04:59.304Z,25.20
2018-04-16T08:08:04.478Z,24.10
2018-04-16T08:11:09.470Z,25.20
2018-04-16T08:14:15.618Z,23.60
2018-04-16T08:17:21.234Z,24.07
2018-04-16T08:20:27.385Z,25.23
2018-04-16T08:23:33.305Z,24.87
2018-04-16T08:26:38.951Z,24.00
2018-04-16T08:29:43.833Z,27.10
2018-04-16T08:32:50.177Z,25.10
2018-04-16T08:35:55.893Z,24.50
2018-04-16T08:39:00.581Z,24.77
2018-04-16T08:42:05.798Z,24.90
2018-04-16T08:45:11.229Z,23.77
2018-04-16T08:48:16.453Z,24.33
2018-04-16T08:51:22.798Z,25.93
2018-04-16T08:54:28.049Z,25.20
2018-04-16T08:57:33.257Z,24.93
2018-04-16T09:00:38.975Z,25.60
2018-04-16T09:03:44.960Z,25.50
2018-04-16T09:06:50.921Z,25.07
2018-04-16T09:09:56.146Z,24.73
2018-04-16T09:13:01.383Z,23.80
2018-04-16T09:16:07.503Z,23.53
2018-04-16T09:19:13.453Z,23.50
2018-04-16T09:22:19.211Z,23.63
2018-04-16T09:25:25.341Z,23.43
2018-04-16T09:28:30.857Z,24.07
2018-04-16T09:31:36.617Z,23.87
2018-04-16T09:34:43.766Z,25.67
2018-04-16T09:37:50.611Z,22.70
2018-04-16T09:40:56.298Z,25.27
2018-04-16T09:44:01.521Z,22.47
2018-04-16T09:47:07.558Z,23.50
2018-04-16T09:50:14.000Z,21.03
2018-04-16T09:53:19.641Z,22.27
2018-04-16T09:56:25.764Z,21.33
2018-04-16T09:59:31.706Z,21.80
2018-04-16T10:02:37.502Z,22.97
2018-04-16T10:05:43.309Z,23.07
2018-04-16T10:08:49.150Z,21.07
2018-04-16T10:11:54.374Z,20.63
2018-04-16T10:15:00.161Z,20.73
2018-04-16T10:18:05.058Z,22.37
2018-04-16T10:21:10.468Z,24.73
2018-04-16T10:24:15.697Z,23.53
2018-04-16T10:27:21.658Z,20.10
2018-04-16T10:30:26.885Z,19.20
2018-04-16T10:33:33.025Z,23.07
2018-04-16T10:36:38.241Z,23.03
2018-04-16T10:39:45.371Z,22.57
2018-04-16T10:42:51.195Z,20.33
2018-04-16T10:45:56.802Z,21.27
2018-04-16T10:49:01.770Z,19.97
2018-04-16T10:52:06.986Z,20.97
2018-04-16T10:55:12.202Z,22.53
2018-04-16T10:58:17.345Z,22.30
2018-04-16T11:01:22.972Z,21.40
2018-04-16T11:04:28.773Z,21.23
2018-04-16T11:07:34.017Z,22.33
2018-04-16T11:10:39.233Z,22.07
2018-04-16T11:13:44.219Z,21.20
2018-04-16T11:16:49.617Z,21.40
2018-04-16T11:19:54.833Z,21.43
2018-04-16T11:22:59.822Z,21.20
2018-04-16T11:26:05.460Z,20.50
2018-04-16T11:29:10.897Z,21.57
2018-04-16T11:32:16.203Z,21.53
2018-04-16T11:35:21.540Z,21.50
2018-04-16T11:38:27.602Z,21.60
2018-04-16T11:41:32.816Z,20.60
2018-04-16T11:44:38.985Z,20.73
2018-04-16T11:47:44.221Z,19.23
2018-04-16T11:50:50.368Z,20.83
2018-04-16T11:53:56.402Z,20.80
2018-04-16T11:57:02.553Z,20.50
2018-04-16T12:00:07.765Z,19.90
2018-04-16T12:03:12.748Z,18.97
2018-04-16T12:06:17.973Z,18.93
2018-04-16T12:09:24.049Z,19.73
2018-04-16T12:12:31.243Z,18.43
2018-04-16T12:15:37.113Z,18.10
2018-04-16T12:18:42.841Z,17.57
2018-04-16T12:21:49.625Z,19.73
2018-04-16T12:24:56.041Z,17.43
2018-04-16T12:28:01.869Z,17.80
2018-04-16T12:31:07.793Z,16.80
2018-04-16T12:34:13.830Z,18.00
2018-04-16T12:37:19.849Z,18.43
2018-04-16T12:40:25.873Z,16.57
2018-04-16T12:43:31.691Z,17.80
2018-04-16T12:46:36.929Z,15.80
2018-04-16T12:49:42.137Z,15.20
2018-04-16T12:52:47.989Z,16.37
2018-04-16T12:55:54.039Z,16.10
2018-04-16T12:59:00.083Z,17.20
2018-04-16T13:02:06.037Z,16.03
2018-04-16T13:05:11.986Z,17.30
2018-04-16T13:08:18.015Z,16.40
2018-04-16T13:11:25.157Z,16.50
2018-04-16T13:14:31.104Z,15.20
2018-04-16T13:17:37.225Z,18.10
2018-04-16T13:20:44.274Z,16.37
2018-04-16T13:23:50.097Z,17.13
2018-04-16T13:26:56.154Z,15.67
2018-04-16T13:30:03.235Z,16.33
2018-04-16T13:33:08.789Z,15.67
2018-04-16T13:36:14.925Z,14.90
2018-04-16T13:39:20.140Z,16.00
2018-04-16T13:42:26.285Z,15.37
2018-04-16T13:45:32.534Z,15.93
2018-04-16T13:48:38.353Z,15.77
2018-04-16T13:51:43.584Z,14.23
2018-04-16T13:54:49.729Z,15.80
2018-04-16T13:57:55.629Z,13.07
2018-04-16T14:01:01.468Z,13.60
2018-04-16T14:04:07.114Z,14.43
2018-04-16T14:07:13.453Z,15.90
2018-04-16T14:10:19.406Z,14.40
2018-04-16T14:13:24.626Z,13.60
2018-04-16T14:16:29.677Z,15.53
2018-04-16T14:19:34.893Z,13.20
2018-04-16T14:22:40.106Z,9.10
2018-04-16T14:25:46.161Z,7.53
2018-04-16T14:28:52.065Z,7.10
2018-04-16T14:31:59.035Z,6.30
2018-04-16T14:35:04.847Z,5.53
2018-04-16T14:38:10.766Z,5.40
2018-04-16T14:41:16.910Z,51.17
2018-04-16T14:44:22.649Z,27.07
2018-04-16T14:47:28.590Z,13.70
2018-04-16T14:50:34.609Z,9.80
2018-04-16T14:53:40.644Z,7.00
2018-04-16T14:56:46.794Z,6.93
2018-04-16T14:59:52.773Z,7.50
2018-04-16T15:02:58.457Z,6.23
2018-04-16T15:06:04.113Z,6.70
2018-04-16T15:09:10.270Z,5.97
2018-04-16T15:12:16.089Z,6.43
2018-04-16T15:15:22.122Z,6.00
2018-04-16T15:18:28.090Z,5.87
2018-04-16T15:21:34.045Z,6.20
2018-04-16T15:24:39.913Z,6.43
2018-04-16T15:27:46.054Z,6.30
2018-04-16T15:30:51.497Z,6.60
2018-04-16T15:33:56.732Z,6.97
2018-04-16T15:37:01.656Z,5.90
2018-04-16T15:40:07.719Z,6.77
2018-04-16T15:43:13.507Z,6.03
2018-04-16T15:46:20.459Z,7.07
2018-04-16T15:49:26.006Z,6.80
2018-04-16T15:52:31.256Z,6.80
2018-04-16T15:55:36.629Z,6.87
2018-04-16T15:58:41.592Z,8.23
2018-04-16T16:01:46.527Z,6.00
2018-04-16T16:04:52.671Z,7.43
2018-04-16T16:07:58.586Z,7.40
2018-04-16T16:11:04.237Z,8.40
2018-04-16T16:14:09.747Z,7.27
2018-04-16T16:17:14.782Z,7.63
2018-04-16T16:20:20.107Z,7.40
2018-04-16T16:23:25.482Z,7.60
2018-04-16T16:26:31.310Z,7.77
2018-04-16T16:29:36.657Z,7.33
2018-04-16T16:32:41.990Z,7.57
2018-04-16T16:35:47.121Z,7.83
2018-04-16T16:38:52.917Z,8.30
2018-04-16T16:41:58.560Z,7.80
2018-04-16T16:45:04.862Z,7.80
2018-04-16T16:48:10.400Z,8.67
2018-04-16T16:51:15.650Z,7.30
2018-04-16T16:54:21.485Z,6.43
2018-04-16T16:57:26.413Z,7.50
2018-04-16T17:00:32.297Z,8.57
2018-04-16T17:03:37.233Z,7.80
2018-04-16T17:06:43.131Z,7.40
2018-04-16T17:09:48.037Z,7.57
2018-04-16T17:12:53.860Z,6.00
2018-04-16T17:15:59.707Z,9.27
2018-04-16T17:19:04.405Z,9.30
2018-04-16T17:22:10.085Z,8.57
2018-04-16T17:25:15.851Z,8.20
2018-04-16T17:28:20.788Z,8.93
2018-04-16T17:31:25.720Z,10.00
2018-04-16T17:34:30.730Z,11.87
2018-04-16T17:37:35.859Z,11.70
2018-04-16T17:40:40.801Z,12.40
2018-04-16T17:43:45.761Z,12.50
2018-04-16T17:46:50.899Z,12.00
2018-04-16T17:49:55.856Z,10.60
2018-04-16T17:53:01.314Z,11.57
2018-04-16T17:56:07.176Z,12.37
2018-04-16T17:59:14.202Z,12.80
2018-04-16T18:02:19.761Z,12.80
2018-04-16T18:05:25.712Z,11.90
2018-04-16T18:08:31.262Z,12.53
2018-04-16T18:11:36.608Z,12.97
2018-04-16T18:14:41.675Z,13.40
2018-04-16T18:17:46.610Z,12.83
2018-04-16T18:20:52.665Z,12.13
2018-04-16T18:23:58.073Z,15.17
2018-04-16T18:27:03.695Z,14.83
2018-04-16T18:30:08.921Z,14.30
2018-04-16T18:33:13.922Z,12.37
2018-04-16T18:36:19.507Z,13.67
2018-04-16T18:39:24.469Z,12.53
2018-04-16T18:42:30.654Z,13.50
2018-04-16T18:45:36.593Z,13.40
2018-04-16T18:48:42.142Z,14.77
2018-04-16T18:51:47.989Z,14.23
2018-04-16T18:54:53.451Z,13.80
2018-04-16T18:58:00.229Z,13.13
2018-04-16T19:01:05.601Z,12.10
2018-04-16T19:04:10.217Z,11.30
2018-04-16T19:07:15.785Z,12.43
2018-04-16T19:10:20.393Z,11.07
2018-04-16T19:13:26.250Z,10.80
2018-04-16T19:16:31.225Z,9.87
2018-04-16T19:19:36.181Z,11.03
2018-04-16T19:22:41.745Z,10.10
2018-04-16T19:25:47.646Z,10.50
2018-04-16T19:28:52.470Z,10.50
2018-04-16T19:31:57.836Z,10.07
2018-04-16T19:35:07.257Z,10.80
2018-04-16T19:38:14.269Z,9.23
2018-04-16T19:41:19.590Z,9.07
2018-04-16T19:44:24.520Z,8.60
2018-04-16T19:47:29.878Z,9.47
2018-04-16T19:50:34.861Z,8.47
2018-04-16T19:53:40.809Z,8.37
2018-04-16T19:56:52.709Z,8.23
2018-04-16T19:59:58.559Z,7.77
2018-04-16T20:03:09.981Z,6.90
2018-04-16T20:06:15.597Z,7.07
2018-04-16T20:09:21.149Z,6.87
2018-04-16T20:12:27.078Z,7.10
2018-04-16T20:15:32.627Z,7.20
2018-04-16T20:18:37.563Z,6.50
2018-04-16T20:21:42.481Z,6.70
2018-04-16T20:24:48.438Z,6.20
2018-04-16T20:27:54.062Z,7.00
2018-04-16T20:30:58.984Z,6.20
2018-04-16T20:34:04.829Z,6.77
2018-04-16T20:37:10.185Z,5.37
2018-04-16T20:40:15.117Z,6.10
2018-04-16T20:43:20.965Z,5.60
2018-04-16T20:46:26.301Z,5.40
2018-04-16T20:49:31.237Z,6.00
2018-04-16T20:52:36.572Z,4.93
2018-04-16T20:55:41.509Z,4.60
2018-04-16T20:58:46.623Z,4.63
2018-04-16T21:01:52.491Z,5.57
2018-04-16T21:04:58.322Z,4.97
2018-04-16T21:08:03.252Z,4.47
2018-04-16T21:11:08.918Z,3.80
2018-04-16T21:14:13.844Z,4.10
2018-04-16T21:17:18.790Z,4.63
2018-04-16T21:20:24.432Z,3.93
2018-04-16T21:23:29.413Z,4.20
2018-04-16T21:26:34.377Z,3.70
2018-04-16T21:29:39.945Z,3.17
2018-04-16T21:32:44.869Z,2.67
2018-04-16T21:35:50.208Z,3.10
2018-04-16T21:38:55.136Z,2.60
2018-04-16T21:42:00.685Z,2.70
2018-04-16T21:45:05.294Z,2.57
2018-04-16T21:48:10.725Z,2.90
2018-04-16T21:51:15.335Z,2.80
2018-04-16T21:54:20.534Z,2.63
2018-04-16T21:57:26.369Z,3.97
2018-04-16T22:00:31.701Z,2.40
2018-04-16T22:03:37.593Z,2.30
2018-04-16T22:06:42.535Z,2.10
2018-04-16T22:09:48.960Z,2.47
2018-04-16T22:12:54.681Z,2.40
2018-04-16T22:15:59.619Z,2.00
2018-04-16T22:19:05.284Z,2.20
2018-04-16T22:22:10.993Z,2.03
2018-04-16T22:25:16.344Z,2.00
2018-04-16T22:28:22.589Z,2.30
2018-04-16T22:31:27.971Z,2.80
2018-04-16T22:34:32.657Z,2.40
2018-04-16T22:37:38.041Z,2.23
2018-04-16T22:40:42.965Z,2.40
2018-04-16T22:43:48.173Z,2.00
2018-04-16T22:46:53.521Z,2.13
2018-04-16T22:49:58.441Z,2.10
2018-04-16T22:53:04.769Z,1.90
2018-04-16T22:56:09.357Z,2.00
2018-04-16T22:59:14.833Z,2.30
2018-04-16T23:02:20.760Z,1.90
2018-04-16T23:05:26.577Z,2.20
2018-04-16T23:08:32.296Z,2.10
2018-04-16T23:11:38.542Z,2.30
2018-04-16T23:14:43.916Z,2.20
2018-04-16T23:17:49.495Z,2.20
2018-04-16T23:20:55.597Z,1.87
2018-04-16T23:24:01.210Z,2.50
2018-04-16T23:27:06.466Z,2.07
2018-04-16T23:30:11.840Z,1.83
2018-04-16T23:33:17.669Z,1.73
2018-04-16T23:36:23.998Z,1.67
2018-04-16T23:39:31.037Z,2.60
2018-04-16T23:42:36.870Z,2.10
2018-04-16T23:45:42.961Z,2.60
2018-04-16T23:48:49.098Z,1.83
2018-04-16T23:51:54.286Z,2.50
2018-04-16T23:54:59.913Z,2.83
2018-04-16T23:58:06.032Z,2.00
